sensor_id;sensor_type;location;lat;lon;timestamp;P1;durP1;ratioP1;P2;durP2;ratioP2
75603;SDS011;64187;51.010;13.792;2022-11-09T00:03:23;19.15;;;12.02;;
75603;SDS011;64187;51.010;13.792;2022-11-09T00:08:22;19.98;;;13.07;;
75603;SDS011;64187;51.010;13.792;2022-11-09T00:13:21;19.20;;;12.63;;
75603;SDS011;64187;51.010;13.792;2022-11-09T00:18:20;21.58;;;12.18;;
75603;SDS011;64187;51.010;13.792;2022-11-09T00:23:19;20.58;;;11.82;;
75603;SDS011;64187;51.010;13.792;2022-11-09T00:28:19;20.67;;;13.13;;
75603;SDS011;64187;51.010;13.792;2022-11-09T00:33:17;20.25;;;12.23;;
75603;SDS011;64187;51.010;13.792;2022-11-09T00:38:17;20.77;;;13.13;;
75603;SDS011;64187;51.010;13.792;2022-11-09T00:43:15;22.48;;;12.05;;
75603;SDS011;64187;51.010;13.792;2022-11-09T00:48:16;23.45;;;13.18;;
75603;SDS011;64187;51.010;13.792;2022-11-09T00:53:16;20.40;;;12.80;;
75603;SDS011;64187;51.010;13.792;2022-11-09T00:58:15;23.15;;;13.57;;
75603;SDS011;64187;51.010;13.792;2022-11-09T01:03:14;22.23;;;13.13;;
75603;SDS011;64187;51.010;13.792;2022-11-09T01:08:14;26.13;;;14.90;;
75603;SDS011;64187;51.010;13.792;2022-11-09T01:13:16;27.15;;;14.70;;
75603;SDS011;64187;51.010;13.792;2022-11-09T01:18:17;23.77;;;14.30;;
75603;SDS011;64187;51.010;13.792;2022-11-09T01:23:17;24.70;;;14.13;;
75603;SDS011;64187;51.010;13.792;2022-11-09T01:28:18;25.80;;;14.02;;
75603;SDS011;64187;51.010;13.792;2022-11-09T01:33:16;24.30;;;14.93;;
75603;SDS011;64187;51.010;13.792;2022-11-09T01:38:16;20.92;;;13.23;;
75603;SDS011;64187;51.010;13.792;2022-11-09T01:43:15;24.25;;;14.38;;
75603;SDS011;64187;51.010;13.792;2022-11-09T01:48:19;21.90;;;13.32;;
75603;SDS011;64187;51.010;13.792;2022-11-09T01:53:26;22.63;;;13.45;;
75603;SDS011;64187;51.010;13.792;2022-11-09T01:58:40;21.98;;;12.80;;
75603;SDS011;64187;51.010;13.792;2022-11-09T02:03:54;25.80;;;14.38;;
75603;SDS011;64187;51.010;13.792;2022-11-09T02:08:58;23.20;;;13.60;;
75603;SDS011;64187;51.010;13.792;2022-11-09T02:14:14;22.38;;;13.75;;
75603;SDS011;64187;51.010;13.792;2022-11-09T02:19:15;23.33;;;13.95;;
75603;SDS011;64187;51.010;13.792;2022-11-09T02:24:14;21.45;;;13.70;;
75603;SDS011;64187;51.010;13.792;2022-11-09T02:29:18;22.80;;;13.57;;
75603;SDS011;64187;51.010;13.792;2022-11-09T02:34:24;24.20;;;13.02;;
75603;SDS011;64187;51.010;13.792;2022-11-09T02:39:24;23.27;;;13.00;;
75603;SDS011;64187;51.010;13.792;2022-11-09T02:44:24;20.90;;;13.10;;
75603;SDS011;64187;51.010;13.792;2022-11-09T02:49:26;23.90;;;13.15;;
75603;SDS011;64187;51.010;13.792;2022-11-09T02:54:25;21.35;;;12.93;;
75603;SDS011;64187;51.010;13.792;2022-11-09T02:59:24;23.42;;;13.35;;
75603;SDS011;64187;51.010;13.792;2022-11-09T03:04:23;24.95;;;13.35;;
75603;SDS011;64187;51.010;13.792;2022-11-09T03:09:23;24.88;;;12.63;;
75603;SDS011;64187;51.010;13.792;2022-11-09T03:14:22;24.27;;;13.45;;
75603;SDS011;64187;51.010;13.792;2022-11-09T03:24:24;22.55;;;12.95;;
75603;SDS011;64187;51.010;13.792;2022-11-09T03:29:26;24.00;;;12.77;;
75603;SDS011;64187;51.010;13.792;2022-11-09T03:34:25;17.67;;;11.32;;
75603;SDS011;64187;51.010;13.792;2022-11-09T03:39:24;19.77;;;12.18;;
75603;SDS011;64187;51.010;13.792;2022-11-09T03:44:23;22.80;;;13.02;;
75603;SDS011;64187;51.010;13.792;2022-11-09T03:49:22;20.60;;;12.75;;
75603;SDS011;64187;51.010;13.792;2022-11-09T03:54:21;20.27;;;12.55;;
75603;SDS011;64187;51.010;13.792;2022-11-09T03:59:19;24.98;;;12.88;;
75603;SDS011;64187;51.010;13.792;2022-11-09T04:04:18;21.17;;;12.45;;
75603;SDS011;64187;51.010;13.792;2022-11-09T04:09:17;20.27;;;12.55;;
75603;SDS011;64187;51.010;13.792;2022-11-09T04:14:16;17.42;;;10.45;;
75603;SDS011;64187;51.010;13.792;2022-11-09T04:19:14;19.45;;;12.15;;
75603;SDS011;64187;51.010;13.792;2022-11-09T04:24:13;21.77;;;12.70;;
75603;SDS011;64187;51.010;13.792;2022-11-09T04:29:13;23.35;;;13.15;;
75603;SDS011;64187;51.010;13.792;2022-11-09T04:34:11;20.02;;;12.38;;
75603;SDS011;64187;51.010;13.792;2022-11-09T04:39:10;21.80;;;12.90;;
75603;SDS011;64187;51.010;13.792;2022-11-09T04:44:09;23.75;;;13.30;;
75603;SDS011;64187;51.010;13.792;2022-11-09T04:49:08;19.83;;;12.00;;
75603;SDS011;64187;51.010;13.792;2022-11-09T04:54:06;22.05;;;12.23;;
75603;SDS011;64187;51.010;13.792;2022-11-09T04:59:05;23.15;;;13.43;;
75603;SDS011;64187;51.010;13.792;2022-11-09T05:04:05;23.52;;;12.40;;
75603;SDS011;64187;51.010;13.792;2022-11-09T05:09:04;22.67;;;11.85;;
75603;SDS011;64187;51.010;13.792;2022-11-09T05:14:04;17.23;;;11.52;;
75603;SDS011;64187;51.010;13.792;2022-11-09T05:19:03;17.50;;;10.68;;
75603;SDS011;64187;51.010;13.792;2022-11-09T05:24:02;19.42;;;10.65;;
75603;SDS011;64187;51.010;13.792;2022-11-09T05:29:02;15.07;;;9.45;;
75603;SDS011;64187;51.010;13.792;2022-11-09T05:34:03;19.00;;;11.07;;
75603;SDS011;64187;51.010;13.792;2022-11-09T05:39:03;17.48;;;11.25;;
75603;SDS011;64187;51.010;13.792;2022-11-09T05:44:02;14.52;;;9.60;;
75603;SDS011;64187;51.010;13.792;2022-11-09T05:49:01;16.80;;;10.50;;
75603;SDS011;64187;51.010;13.792;2022-11-09T05:54:00;18.05;;;10.45;;
75603;SDS011;64187;51.010;13.792;2022-11-09T05:58:58;18.42;;;11.07;;
75603;SDS011;64187;51.010;13.792;2022-11-09T06:03:57;17.48;;;11.07;;
75603;SDS011;64187;51.010;13.792;2022-11-09T06:08:56;17.98;;;11.57;;
75603;SDS011;64187;51.010;13.792;2022-11-09T06:13:55;21.80;;;11.10;;
75603;SDS011;64187;51.010;13.792;2022-11-09T06:18:54;24.20;;;12.10;;
75603;SDS011;64187;51.010;13.792;2022-11-09T06:23:53;16.25;;;9.65;;
75603;SDS011;64187;51.010;13.792;2022-11-09T06:28:51;18.40;;;10.75;;
75603;SDS011;64187;51.010;13.792;2022-11-09T06:33:50;21.27;;;11.25;;
75603;SDS011;64187;51.010;13.792;2022-11-09T06:38:50;17.23;;;10.65;;
75603;SDS011;64187;51.010;13.792;2022-11-09T06:43:49;19.70;;;10.82;;
75603;SDS011;64187;51.010;13.792;2022-11-09T06:48:48;19.42;;;11.00;;
75603;SDS011;64187;51.010;13.792;2022-11-09T06:53:52;22.38;;;12.63;;
75603;SDS011;64187;51.010;13.792;2022-11-09T06:58:51;17.35;;;9.93;;
75603;SDS011;64187;51.010;13.792;2022-11-09T07:03:50;18.63;;;11.80;;
75603;SDS011;64187;51.010;13.792;2022-11-09T07:08:48;17.77;;;10.60;;
75603;SDS011;64187;51.010;13.792;2022-11-09T07:13:47;16.98;;;10.38;;
75603;SDS011;64187;51.010;13.792;2022-11-09T07:18:53;19.30;;;11.30;;
75603;SDS011;64187;51.010;13.792;2022-11-09T07:23:52;16.35;;;10.32;;
75603;SDS011;64187;51.010;13.792;2022-11-09T07:28:51;17.38;;;11.55;;
75603;SDS011;64187;51.010;13.792;2022-11-09T07:33:50;19.48;;;11.05;;
75603;SDS011;64187;51.010;13.792;2022-11-09T07:38:48;17.50;;;11.02;;
75603;SDS011;64187;51.010;13.792;2022-11-09T07:43:47;20.80;;;11.93;;
75603;SDS011;64187;51.010;13.792;2022-11-09T07:48:46;17.02;;;10.20;;
75603;SDS011;64187;51.010;13.792;2022-11-09T07:53:45;19.05;;;11.40;;
75603;SDS011;64187;51.010;13.792;2022-11-09T07:58:44;18.70;;;11.65;;
75603;SDS011;64187;51.010;13.792;2022-11-09T08:03:43;21.38;;;12.95;;
75603;SDS011;64187;51.010;13.792;2022-11-09T08:08:41;20.65;;;11.35;;
75603;SDS011;64187;51.010;13.792;2022-11-09T08:13:40;21.25;;;11.65;;
75603;SDS011;64187;51.010;13.792;2022-11-09T08:18:39;20.50;;;11.77;;
75603;SDS011;64187;51.010;13.792;2022-11-09T08:23:38;21.98;;;13.40;;
75603;SDS011;64187;51.010;13.792;2022-11-09T08:28:37;19.80;;;12.63;;
75603;SDS011;64187;51.010;13.792;2022-11-09T08:33:37;19.02;;;11.75;;
75603;SDS011;64187;51.010;13.792;2022-11-09T08:38:38;18.77;;;11.77;;
75603;SDS011;64187;51.010;13.792;2022-11-09T08:43:37;16.88;;;11.73;;
75603;SDS011;64187;51.010;13.792;2022-11-09T08:48:36;21.48;;;10.90;;
75603;SDS011;64187;51.010;13.792;2022-11-09T08:53:35;19.08;;;12.50;;
75603;SDS011;64187;51.010;13.792;2022-11-09T08:58:34;19.10;;;13.10;;
75603;SDS011;64187;51.010;13.792;2022-11-09T09:03:33;22.23;;;11.85;;
75603;SDS011;64187;51.010;13.792;2022-11-09T09:08:32;16.83;;;11.00;;
75603;SDS011;64187;51.010;13.792;2022-11-09T09:13:31;20.67;;;12.68;;
75603;SDS011;64187;51.010;13.792;2022-11-09T09:18:30;16.60;;;11.02;;
75603;SDS011;64187;51.010;13.792;2022-11-09T09:23:29;15.18;;;10.70;;
75603;SDS011;64187;51.010;13.792;2022-11-09T09:28:28;18.58;;;12.50;;
75603;SDS011;64187;51.010;13.792;2022-11-09T09:33:27;15.23;;;9.85;;
75603;SDS011;64187;51.010;13.792;2022-11-09T09:38:26;14.90;;;9.32;;
75603;SDS011;64187;51.010;13.792;2022-11-09T09:48:35;16.52;;;9.98;;
75603;SDS011;64187;51.010;13.792;2022-11-09T09:53:42;14.80;;;10.60;;
75603;SDS011;64187;51.010;13.792;2022-11-09T09:58:48;15.18;;;8.27;;
75603;SDS011;64187;51.010;13.792;2022-11-09T10:03:55;15.50;;;10.35;;
75603;SDS011;64187;51.010;13.792;2022-11-09T10:09:00;14.98;;;10.52;;
75603;SDS011;64187;51.010;13.792;2022-11-09T10:25:25;13.98;;;8.98;;
75603;SDS011;64187;51.010;13.792;2022-11-09T10:30:45;12.82;;;8.45;;
75603;SDS011;64187;51.010;13.792;2022-11-09T10:36:00;12.32;;;8.48;;
75603;SDS011;64187;51.010;13.792;2022-11-09T10:52:33;15.55;;;10.15;;
75603;SDS011;64187;51.010;13.792;2022-11-09T10:58:22;15.23;;;11.20;;
75603;SDS011;64187;51.010;13.792;2022-11-09T11:03:52;17.25;;;11.07;;
75603;SDS011;64187;51.010;13.792;2022-11-09T11:09:15;16.40;;;10.48;;
75603;SDS011;64187;51.010;13.792;2022-11-09T11:14:40;18.40;;;9.90;;
75603;SDS011;64187;51.010;13.792;2022-11-09T11:31:15;12.55;;;9.35;;
75603;SDS011;64187;51.010;13.792;2022-11-09T11:36:38;13.93;;;10.38;;
75603;SDS011;64187;51.010;13.792;2022-11-09T11:42:10;13.00;;;8.32;;
75603;SDS011;64187;51.010;13.792;2022-11-09T11:53:35;13.95;;;9.40;;
75603;SDS011;64187;51.010;13.792;2022-11-09T12:21:36;12.88;;;9.45;;
75603;SDS011;64187;51.010;13.792;2022-11-09T12:38:43;15.05;;;9.93;;
75603;SDS011;64187;51.010;13.792;2022-11-09T12:49:41;18.23;;;11.10;;
75603;SDS011;64187;51.010;13.792;2022-11-09T12:55:01;17.50;;;11.93;;
75603;SDS011;64187;51.010;13.792;2022-11-09T13:11:47;17.48;;;12.15;;
75603;SDS011;64187;51.010;13.792;2022-11-09T13:39:58;22.23;;;13.38;;
75603;SDS011;64187;51.010;13.792;2022-11-09T13:50:49;19.38;;;13.73;;
75603;SDS011;64187;51.010;13.792;2022-11-09T13:56:14;23.02;;;14.35;;
75603;SDS011;64187;51.010;13.792;2022-11-09T14:01:57;19.85;;;13.30;;
75603;SDS011;64187;51.010;13.792;2022-11-09T14:07:23;21.05;;;13.27;;
75603;SDS011;64187;51.010;13.792;2022-11-09T14:18:48;21.05;;;14.13;;
75603;SDS011;64187;51.010;13.792;2022-11-09T14:24:15;21.00;;;14.23;;
75603;SDS011;64187;51.010;13.792;2022-11-09T14:29:54;22.00;;;14.40;;
75603;SDS011;64187;51.010;13.792;2022-11-09T14:40:46;21.58;;;15.65;;
75603;SDS011;64187;51.010;13.792;2022-11-09T14:46:06;25.33;;;15.48;;
75603;SDS011;64187;51.010;13.792;2022-11-09T14:51:37;25.10;;;15.25;;
75603;SDS011;64187;51.010;13.792;2022-11-09T14:56:56;25.80;;;16.05;;
75603;SDS011;64187;51.010;13.792;2022-11-09T15:02:17;24.63;;;14.90;;
75603;SDS011;64187;51.010;13.792;2022-11-09T15:07:37;26.23;;;15.35;;
75603;SDS011;64187;51.010;13.792;2022-11-09T15:12:56;24.42;;;14.68;;
75603;SDS011;64187;51.010;13.792;2022-11-09T15:18:20;25.95;;;14.85;;
75603;SDS011;64187;51.010;13.792;2022-11-09T15:23:47;21.52;;;14.90;;
75603;SDS011;64187;51.010;13.792;2022-11-09T15:29:25;24.38;;;15.85;;
75603;SDS011;64187;51.010;13.792;2022-11-09T15:34:54;25.88;;;15.70;;
75603;SDS011;64187;51.010;13.792;2022-11-09T15:40:16;26.10;;;16.25;;
75603;SDS011;64187;51.010;13.792;2022-11-09T15:45:36;26.30;;;16.83;;
75603;SDS011;64187;51.010;13.792;2022-11-09T15:50:56;22.98;;;14.57;;
75603;SDS011;64187;51.010;13.792;2022-11-09T15:56:16;28.05;;;15.30;;
75603;SDS011;64187;51.010;13.792;2022-11-09T16:01:39;28.80;;;16.35;;
75603;SDS011;64187;51.010;13.792;2022-11-09T16:06:58;26.52;;;15.57;;
75603;SDS011;64187;51.010;13.792;2022-11-09T16:12:15;28.67;;;16.02;;
75603;SDS011;64187;51.010;13.792;2022-11-09T16:17:33;22.65;;;14.77;;
75603;SDS011;64187;51.010;13.792;2022-11-09T16:22:50;22.40;;;15.43;;
75603;SDS011;64187;51.010;13.792;2022-11-09T16:28:08;26.98;;;15.75;;
75603;SDS011;64187;51.010;13.792;2022-11-09T16:33:26;26.52;;;15.15;;
75603;SDS011;64187;51.010;13.792;2022-11-09T16:38:45;23.48;;;15.75;;
75603;SDS011;64187;51.010;13.792;2022-11-09T16:44:05;24.17;;;14.95;;
75603;SDS011;64187;51.010;13.792;2022-11-09T16:49:23;22.90;;;15.00;;
75603;SDS011;64187;51.010;13.792;2022-11-09T16:54:40;24.05;;;15.27;;
75603;SDS011;64187;51.010;13.792;2022-11-09T16:59:58;21.50;;;15.23;;
75603;SDS011;64187;51.010;13.792;2022-11-09T17:05:16;22.58;;;14.23;;
75603;SDS011;64187;51.010;13.792;2022-11-09T17:10:34;24.15;;;16.40;;
75603;SDS011;64187;51.010;13.792;2022-11-09T17:16:02;22.92;;;14.70;;
75603;SDS011;64187;51.010;13.792;2022-11-09T17:21:23;22.65;;;15.20;;
75603;SDS011;64187;51.010;13.792;2022-11-09T17:26:42;25.92;;;14.00;;
75603;SDS011;64187;51.010;13.792;2022-11-09T17:31:59;19.55;;;13.27;;
75603;SDS011;64187;51.010;13.792;2022-11-09T17:37:17;18.95;;;13.40;;
75603;SDS011;64187;51.010;13.792;2022-11-09T17:42:35;16.20;;;11.55;;
75603;SDS011;64187;51.010;13.792;2022-11-09T17:47:53;14.35;;;9.60;;
75603;SDS011;64187;51.010;13.792;2022-11-09T17:53:11;16.35;;;11.15;;
75603;SDS011;64187;51.010;13.792;2022-11-09T17:58:29;18.85;;;12.80;;
75603;SDS011;64187;51.010;13.792;2022-11-09T18:03:46;18.23;;;11.55;;
75603;SDS011;64187;51.010;13.792;2022-11-09T18:09:04;17.40;;;12.90;;
75603;SDS011;64187;51.010;13.792;2022-11-09T18:14:42;17.55;;;10.57;;
75603;SDS011;64187;51.010;13.792;2022-11-09T18:19:59;17.27;;;12.20;;
75603;SDS011;64187;51.010;13.792;2022-11-09T18:25:17;18.20;;;11.25;;
75603;SDS011;64187;51.010;13.792;2022-11-09T18:30:35;18.05;;;11.05;;
75603;SDS011;64187;51.010;13.792;2022-11-09T18:35:58;19.00;;;12.23;;
75603;SDS011;64187;51.010;13.792;2022-11-09T18:41:22;20.70;;;12.90;;
75603;SDS011;64187;51.010;13.792;2022-11-09T18:46:40;14.52;;;10.32;;
75603;SDS011;64187;51.010;13.792;2022-11-09T18:51:58;16.15;;;10.73;;
75603;SDS011;64187;51.010;13.792;2022-11-09T18:57:15;21.55;;;12.55;;
75603;SDS011;64187;51.010;13.792;2022-11-09T19:02:36;16.27;;;11.63;;
75603;SDS011;64187;51.010;13.792;2022-11-09T19:07:54;19.42;;;11.95;;
75603;SDS011;64187;51.010;13.792;2022-11-09T19:13:12;18.55;;;11.35;;
75603;SDS011;64187;51.010;13.792;2022-11-09T19:18:30;19.05;;;12.18;;
75603;SDS011;64187;51.010;13.792;2022-11-09T19:23:47;15.43;;;11.60;;
75603;SDS011;64187;51.010;13.792;2022-11-09T19:29:04;19.63;;;12.63;;
75603;SDS011;64187;51.010;13.792;2022-11-09T19:34:23;17.00;;;11.23;;
75603;SDS011;64187;51.010;13.792;2022-11-09T19:39:41;19.42;;;12.20;;
75603;SDS011;64187;51.010;13.792;2022-11-09T19:45:03;17.40;;;12.35;;
75603;SDS011;64187;51.010;13.792;2022-11-09T19:50:21;18.33;;;12.38;;
75603;SDS011;64187;51.010;13.792;2022-11-09T19:55:39;19.00;;;12.13;;
75603;SDS011;64187;51.010;13.792;2022-11-09T20:01:03;22.60;;;12.38;;
75603;SDS011;64187;51.010;13.792;2022-11-09T20:06:24;20.83;;;13.85;;
75603;SDS011;64187;51.010;13.792;2022-11-09T20:11:42;17.73;;;13.02;;
75603;SDS011;64187;51.010;13.792;2022-11-09T20:17:19;21.00;;;12.43;;
75603;SDS011;64187;51.010;13.792;2022-11-09T20:22:37;21.67;;;13.18;;
75603;SDS011;64187;51.010;13.792;2022-11-09T20:27:55;18.30;;;12.45;;
75603;SDS011;64187;51.010;13.792;2022-11-09T20:33:13;17.02;;;12.02;;
75603;SDS011;64187;51.010;13.792;2022-11-09T20:38:30;18.90;;;13.13;;
75603;SDS011;64187;51.010;13.792;2022-11-09T20:43:48;18.48;;;12.55;;
75603;SDS011;64187;51.010;13.792;2022-11-09T20:49:05;20.95;;;13.23;;
75603;SDS011;64187;51.010;13.792;2022-11-09T20:54:23;19.60;;;13.15;;
75603;SDS011;64187;51.010;13.792;2022-11-09T20:59:41;20.80;;;13.93;;
75603;SDS011;64187;51.010;13.792;2022-11-09T21:04:59;21.50;;;13.07;;
75603;SDS011;64187;51.010;13.792;2022-11-09T21:10:18;22.98;;;14.10;;
75603;SDS011;64187;51.010;13.792;2022-11-09T21:15:36;22.80;;;14.57;;
75603;SDS011;64187;51.010;13.792;2022-11-09T21:20:53;20.30;;;13.23;;
75603;SDS011;64187;51.010;13.792;2022-11-09T21:26:12;21.63;;;14.07;;
75603;SDS011;64187;51.010;13.792;2022-11-09T21:31:48;23.20;;;13.25;;
75603;SDS011;64187;51.010;13.792;2022-11-09T21:37:06;20.77;;;13.85;;
75603;SDS011;64187;51.010;13.792;2022-11-09T21:42:25;25.50;;;14.85;;
75603;SDS011;64187;51.010;13.792;2022-11-09T21:47:42;22.33;;;15.07;;
75603;SDS011;64187;51.010;13.792;2022-11-09T21:53:00;22.77;;;15.02;;
75603;SDS011;64187;51.010;13.792;2022-11-09T21:58:18;24.50;;;14.82;;
75603;SDS011;64187;51.010;13.792;2022-11-09T22:03:35;27.58;;;17.35;;
75603;SDS011;64187;51.010;13.792;2022-11-09T22:08:54;26.60;;;16.42;;
75603;SDS011;64187;51.010;13.792;2022-11-09T22:14:14;25.33;;;15.10;;
75603;SDS011;64187;51.010;13.792;2022-11-09T22:19:52;28.40;;;16.70;;
75603;SDS011;64187;51.010;13.792;2022-11-09T22:25:28;28.00;;;16.63;;
75603;SDS011;64187;51.010;13.792;2022-11-09T22:30:46;24.98;;;14.88;;
75603;SDS011;64187;51.010;13.792;2022-11-09T22:36:05;30.02;;;16.15;;
75603;SDS011;64187;51.010;13.792;2022-11-09T22:41:24;26.83;;;16.02;;
75603;SDS011;64187;51.010;13.792;2022-11-09T22:46:42;25.38;;;13.90;;
75603;SDS011;64187;51.010;13.792;2022-11-09T22:51:59;23.23;;;13.55;;
75603;SDS011;64187;51.010;13.792;2022-11-09T22:57:17;22.65;;;12.55;;
75603;SDS011;64187;51.010;13.792;2022-11-09T23:02:35;20.77;;;13.40;;
75603;SDS011;64187;51.010;13.792;2022-11-09T23:07:53;21.00;;;12.77;;
75603;SDS011;64187;51.010;13.792;2022-11-09T23:13:12;18.80;;;11.82;;
75603;SDS011;64187;51.010;13.792;2022-11-09T23:18:30;21.63;;;11.73;;
75603;SDS011;64187;51.010;13.792;2022-11-09T23:24:06;20.42;;;9.93;;
75603;SDS011;64187;51.010;13.792;2022-11-09T23:29:47;14.48;;;9.27;;
75603;SDS011;64187;51.010;13.792;2022-11-09T23:35:05;15.65;;;10.48;;
75603;SDS011;64187;51.010;13.792;2022-11-09T23:40:23;17.98;;;11.10;;
75603;SDS011;64187;51.010;13.792;2022-11-09T23:45:41;18.40;;;11.93;;
75603;SDS011;64187;51.010;13.792;2022-11-09T23:50:59;17.75;;;10.77;;
75603;SDS011;64187;51.010;13.792;2022-11-09T23:56:17;18.73;;;10.50;;
